sensor_id;sensor_type;location;lat;lon;timestamp;temperature;humidity
11142;DHT22;5625;50.122;19.864;2024-02-14T00:00:31;4.40;1.00
11142;DHT22;5625;50.122;19.864;2024-02-14T00:03:01;4.40;1.00
11142;DHT22;5625;50.122;19.864;2024-02-14T00:05:30;4.40;1.00
11142;DHT22;5625;50.122;19.864;2024-02-14T00:07:58;4.40;1.00
11142;DHT22;5625;50.122;19.864;2024-02-14T00:10:26;4.40;1.00
11142;DHT22;5625;50.122;19.864;2024-02-14T00:12:54;4.40;1.00
11142;DHT22;5625;50.122;19.864;2024-02-14T00:15:23;4.40;1.00
11142;DHT22;5625;50.122;19.864;2024-02-14T00:17:52;4.40;1.00
11142;DHT22;5625;50.122;19.864;2024-02-14T00:20:22;4.30;1.00
11142;DHT22;5625;50.122;19.864;2024-02-14T00:22:51;4.30;1.00
11142;DHT22;5625;50.122;19.864;2024-02-14T00:25:20;4.30;1.00
11142;DHT22;5625;50.122;19.864;2024-02-14T00:27:48;4.30;1.00
11142;DHT22;5625;50.122;19.864;2024-02-14T00:30:16;4.30;3.80
11142;DHT22;5625;50.122;19.864;2024-02-14T00:32:44;4.30;1.80
11142;DHT22;5625;50.122;19.864;2024-02-14T00:35:13;4.30;5.70
11142;DHT22;5625;50.122;19.864;2024-02-14T00:37:43;4.30;7.80
11142;DHT22;5625;50.122;19.864;2024-02-14T00:40:11;4.30;9.00
11142;DHT22;5625;50.122;19.864;2024-02-14T00:42:40;4.20;8.70
11142;DHT22;5625;50.122;19.864;2024-02-14T00:45:09;4.20;13.90
11142;DHT22;5625;50.122;19.864;2024-02-14T00:47:37;4.20;16.40
11142;DHT22;5625;50.122;19.864;2024-02-14T00:50:06;4.20;19.70
11142;DHT22;5625;50.122;19.864;2024-02-14T00:52:35;4.30;17.00
11142;DHT22;5625;50.122;19.864;2024-02-14T00:55:05;4.20;23.40
11142;DHT22;5625;50.122;19.864;2024-02-14T00:57:33;4.20;25.50
11142;DHT22;5625;50.122;19.864;2024-02-14T01:00:02;4.20;25.60
11142;DHT22;5625;50.122;19.864;2024-02-14T01:02:32;4.20;31.70
11142;DHT22;5625;50.122;19.864;2024-02-14T01:05:01;4.20;35.10
11142;DHT22;5625;50.122;19.864;2024-02-14T01:07:33;4.20;33.90
11142;DHT22;5625;50.122;19.864;2024-02-14T01:10:02;4.20;41.50
11142;DHT22;5625;50.122;19.864;2024-02-14T01:12:31;4.20;44.10
11142;DHT22;5625;50.122;19.864;2024-02-14T01:15:00;4.20;38.00
11142;DHT22;5625;50.122;19.864;2024-02-14T01:17:28;4.20;37.60
11142;DHT22;5625;50.122;19.864;2024-02-14T01:19:56;4.20;32.40
11142;DHT22;5625;50.122;19.864;2024-02-14T01:22:25;4.20;29.90
11142;DHT22;5625;50.122;19.864;2024-02-14T01:24:53;4.20;28.50
11142;DHT22;5625;50.122;19.864;2024-02-14T01:27:22;4.20;31.30
11142;DHT22;5625;50.122;19.864;2024-02-14T01:29:52;4.20;32.20
11142;DHT22;5625;50.122;19.864;2024-02-14T01:32:22;4.10;35.90
11142;DHT22;5625;50.122;19.864;2024-02-14T01:34:51;4.10;44.40
11142;DHT22;5625;50.122;19.864;2024-02-14T01:37:19;4.10;43.10
11142;DHT22;5625;50.122;19.864;2024-02-14T01:39:48;4.10;44.30
11142;DHT22;5625;50.122;19.864;2024-02-14T01:42:17;4.10;44.20
11142;DHT22;5625;50.122;19.864;2024-02-14T01:44:45;4.10;36.80
11142;DHT22;5625;50.122;19.864;2024-02-14T01:47:17;4.10;32.90
11142;DHT22;5625;50.122;19.864;2024-02-14T01:49:47;4.10;34.80
11142;DHT22;5625;50.122;19.864;2024-02-14T01:52:15;4.10;37.70
11142;DHT22;5625;50.122;19.864;2024-02-14T01:54:43;4.10;34.80
11142;DHT22;5625;50.122;19.864;2024-02-14T01:57:11;4.00;30.60
11142;DHT22;5625;50.122;19.864;2024-02-14T01:59:40;4.00;34.20
11142;DHT22;5625;50.122;19.864;2024-02-14T02:02:08;4.00;40.00
11142;DHT22;5625;50.122;19.864;2024-02-14T02:04:38;4.00;37.90
11142;DHT22;5625;50.122;19.864;2024-02-14T02:07:06;4.00;41.90
11142;DHT22;5625;50.122;19.864;2024-02-14T02:09:34;4.00;40.10
11142;DHT22;5625;50.122;19.864;2024-02-14T02:12:03;4.00;43.10
11142;DHT22;5625;50.122;19.864;2024-02-14T02:14:35;4.00;45.50
11142;DHT22;5625;50.122;19.864;2024-02-14T02:17:03;3.90;46.30
11142;DHT22;5625;50.122;19.864;2024-02-14T02:19:34;3.90;48.40
11142;DHT22;5625;50.122;19.864;2024-02-14T02:22:04;3.90;48.50
11142;DHT22;5625;50.122;19.864;2024-02-14T02:24:34;3.90;43.50
11142;DHT22;5625;50.122;19.864;2024-02-14T02:27:03;3.90;52.30
11142;DHT22;5625;50.122;19.864;2024-02-14T02:29:34;3.80;58.80
11142;DHT22;5625;50.122;19.864;2024-02-14T02:32:05;3.80;60.00
11142;DHT22;5625;50.122;19.864;2024-02-14T02:34:36;3.80;62.70
11142;DHT22;5625;50.122;19.864;2024-02-14T02:37:06;3.80;67.80
11142;DHT22;5625;50.122;19.864;2024-02-14T02:39:37;3.80;64.90
11142;DHT22;5625;50.122;19.864;2024-02-14T02:42:06;3.80;71.40
11142;DHT22;5625;50.122;19.864;2024-02-14T02:44:35;3.80;71.00
11142;DHT22;5625;50.122;19.864;2024-02-14T02:47:04;3.80;71.10
11142;DHT22;5625;50.122;19.864;2024-02-14T02:49:32;3.70;71.80
11142;DHT22;5625;50.122;19.864;2024-02-14T02:52:03;3.70;68.40
11142;DHT22;5625;50.122;19.864;2024-02-14T02:54:31;3.70;66.60
11142;DHT22;5625;50.122;19.864;2024-02-14T02:57:01;3.70;67.90
11142;DHT22;5625;50.122;19.864;2024-02-14T02:59:30;3.70;71.70
11142;DHT22;5625;50.122;19.864;2024-02-14T03:01:59;3.70;79.20
11142;DHT22;5625;50.122;19.864;2024-02-14T03:04:27;3.70;75.50
11142;DHT22;5625;50.122;19.864;2024-02-14T03:07:15;3.70;78.20
11142;DHT22;5625;50.122;19.864;2024-02-14T03:09:43;3.70;75.10
11142;DHT22;5625;50.122;19.864;2024-02-14T03:12:13;3.70;76.40
11142;DHT22;5625;50.122;19.864;2024-02-14T03:14:43;3.60;81.50
11142;DHT22;5625;50.122;19.864;2024-02-14T03:17:12;3.60;81.20
11142;DHT22;5625;50.122;19.864;2024-02-14T03:19:40;3.60;83.40
11142;DHT22;5625;50.122;19.864;2024-02-14T03:22:11;3.60;80.90
11142;DHT22;5625;50.122;19.864;2024-02-14T03:24:39;3.60;82.80
11142;DHT22;5625;50.122;19.864;2024-02-14T03:27:14;3.60;85.60
11142;DHT22;5625;50.122;19.864;2024-02-14T03:29:44;3.60;87.00
11142;DHT22;5625;50.122;19.864;2024-02-14T03:32:14;3.60;89.10
11142;DHT22;5625;50.122;19.864;2024-02-14T03:34:42;3.60;85.20
11142;DHT22;5625;50.122;19.864;2024-02-14T03:37:11;3.60;87.90
11142;DHT22;5625;50.122;19.864;2024-02-14T03:39:39;3.60;90.10
11142;DHT22;5625;50.122;19.864;2024-02-14T03:42:07;3.60;90.20
11142;DHT22;5625;50.122;19.864;2024-02-14T03:44:37;3.60;85.10
11142;DHT22;5625;50.122;19.864;2024-02-14T03:47:07;3.60;84.50
11142;DHT22;5625;50.122;19.864;2024-02-14T03:49:35;3.60;88.30
11142;DHT22;5625;50.122;19.864;2024-02-14T03:52:04;3.50;91.30
11142;DHT22;5625;50.122;19.864;2024-02-14T03:54:36;3.50;91.60
11142;DHT22;5625;50.122;19.864;2024-02-14T03:57:05;3.50;84.30
11142;DHT22;5625;50.122;19.864;2024-02-14T03:59:39;3.50;90.20
11142;DHT22;5625;50.122;19.864;2024-02-14T04:02:08;3.50;87.10
11142;DHT22;5625;50.122;19.864;2024-02-14T04:04:37;3.50;86.70
11142;DHT22;5625;50.122;19.864;2024-02-14T04:07:06;3.50;85.10
11142;DHT22;5625;50.122;19.864;2024-02-14T04:09:36;3.50;79.70
11142;DHT22;5625;50.122;19.864;2024-02-14T04:12:05;3.50;86.90
11142;DHT22;5625;50.122;19.864;2024-02-14T04:14:33;3.50;90.00
11142;DHT22;5625;50.122;19.864;2024-02-14T04:17:04;3.40;91.00
11142;DHT22;5625;50.122;19.864;2024-02-14T04:19:34;3.40;92.00
11142;DHT22;5625;50.122;19.864;2024-02-14T04:22:03;3.40;94.10
11142;DHT22;5625;50.122;19.864;2024-02-14T04:24:33;3.40;96.50
11142;DHT22;5625;50.122;19.864;2024-02-14T04:27:01;3.40;99.10
11142;DHT22;5625;50.122;19.864;2024-02-14T04:29:31;3.40;99.90
11142;DHT22;5625;50.122;19.864;2024-02-14T04:32:01;3.30;99.90
11142;DHT22;5625;50.122;19.864;2024-02-14T04:34:31;3.30;99.90
11142;DHT22;5625;50.122;19.864;2024-02-14T04:37:00;3.30;99.90
11142;DHT22;5625;50.122;19.864;2024-02-14T04:39:29;3.30;99.90
11142;DHT22;5625;50.122;19.864;2024-02-14T04:41:57;3.20;99.90
11142;DHT22;5625;50.122;19.864;2024-02-14T04:44:28;3.20;99.90
11142;DHT22;5625;50.122;19.864;2024-02-14T04:46:57;3.20;99.90
11142;DHT22;5625;50.122;19.864;2024-02-14T04:49:26;3.20;99.90
11142;DHT22;5625;50.122;19.864;2024-02-14T04:51:57;3.20;99.90
11142;DHT22;5625;50.122;19.864;2024-02-14T04:54:28;3.20;99.90
11142;DHT22;5625;50.122;19.864;2024-02-14T04:56:56;3.20;99.90
11142;DHT22;5625;50.122;19.864;2024-02-14T04:59:29;3.10;99.90
11142;DHT22;5625;50.122;19.864;2024-02-14T05:01:57;3.10;99.90
11142;DHT22;5625;50.122;19.864;2024-02-14T05:04:25;3.10;99.90
11142;DHT22;5625;50.122;19.864;2024-02-14T05:06:54;3.10;99.90
11142;DHT22;5625;50.122;19.864;2024-02-14T05:09:26;3.10;99.90
11142;DHT22;5625;50.122;19.864;2024-02-14T05:11:55;3.10;99.90
11142;DHT22;5625;50.122;19.864;2024-02-14T05:14:23;3.10;99.90
11142;DHT22;5625;50.122;19.864;2024-02-14T05:16:52;3.10;99.90
11142;DHT22;5625;50.122;19.864;2024-02-14T05:19:20;3.00;99.90
11142;DHT22;5625;50.122;19.864;2024-02-14T05:21:49;3.00;99.90
11142;DHT22;5625;50.122;19.864;2024-02-14T05:24:17;3.00;99.90
11142;DHT22;5625;50.122;19.864;2024-02-14T05:26:47;3.00;99.90
11142;DHT22;5625;50.122;19.864;2024-02-14T05:29:16;3.00;99.90
11142;DHT22;5625;50.122;19.864;2024-02-14T05:31:46;2.90;99.90
11142;DHT22;5625;50.122;19.864;2024-02-14T05:34:16;2.90;99.90
11142;DHT22;5625;50.122;19.864;2024-02-14T05:36:44;2.90;99.90
11142;DHT22;5625;50.122;19.864;2024-02-14T05:39:14;2.90;99.90
11142;DHT22;5625;50.122;19.864;2024-02-14T05:41:43;2.80;99.90
11142;DHT22;5625;50.122;19.864;2024-02-14T05:44:13;2.80;99.90
11142;DHT22;5625;50.122;19.864;2024-02-14T05:46:41;2.80;99.90
11142;DHT22;5625;50.122;19.864;2024-02-14T05:49:09;2.80;99.90
11142;DHT22;5625;50.122;19.864;2024-02-14T05:51:37;2.80;99.90
11142;DHT22;5625;50.122;19.864;2024-02-14T05:54:06;2.80;99.90
11142;DHT22;5625;50.122;19.864;2024-02-14T05:56:34;2.70;99.90
11142;DHT22;5625;50.122;19.864;2024-02-14T05:59:03;2.70;99.90
11142;DHT22;5625;50.122;19.864;2024-02-14T06:01:33;2.70;99.90
11142;DHT22;5625;50.122;19.864;2024-02-14T06:04:01;2.70;99.90
11142;DHT22;5625;50.122;19.864;2024-02-14T06:06:29;2.70;99.90
11142;DHT22;5625;50.122;19.864;2024-02-14T06:08:57;2.70;99.90
11142;DHT22;5625;50.122;19.864;2024-02-14T06:11:26;2.70;99.90
11142;DHT22;5625;50.122;19.864;2024-02-14T06:13:54;2.60;99.90
11142;DHT22;5625;50.122;19.864;2024-02-14T06:16:22;2.60;99.90
11142;DHT22;5625;50.122;19.864;2024-02-14T06:18:52;2.60;99.90
11142;DHT22;5625;50.122;19.864;2024-02-14T06:21:20;2.60;99.90
11142;DHT22;5625;50.122;19.864;2024-02-14T06:23:49;2.60;99.90
11142;DHT22;5625;50.122;19.864;2024-02-14T06:26:17;2.60;99.90
11142;DHT22;5625;50.122;19.864;2024-02-14T06:28:45;2.60;99.90
11142;DHT22;5625;50.122;19.864;2024-02-14T06:31:13;2.60;99.90
11142;DHT22;5625;50.122;19.864;2024-02-14T06:33:42;2.60;99.90
11142;DHT22;5625;50.122;19.864;2024-02-14T06:36:12;2.60;99.90
11142;DHT22;5625;50.122;19.864;2024-02-14T06:38:42;2.60;99.90
11142;DHT22;5625;50.122;19.864;2024-02-14T06:41:13;2.60;99.90
11142;DHT22;5625;50.122;19.864;2024-02-14T06:43:41;2.60;99.90
11142;DHT22;5625;50.122;19.864;2024-02-14T06:46:09;2.60;99.90
11142;DHT22;5625;50.122;19.864;2024-02-14T06:48:38;2.60;99.90
11142;DHT22;5625;50.122;19.864;2024-02-14T06:51:08;2.60;99.90
11142;DHT22;5625;50.122;19.864;2024-02-14T06:53:37;2.60;99.90
11142;DHT22;5625;50.122;19.864;2024-02-14T06:56:06;2.60;99.90
11142;DHT22;5625;50.122;19.864;2024-02-14T06:58:34;2.70;99.90
11142;DHT22;5625;50.122;19.864;2024-02-14T07:01:03;2.70;99.90
11142;DHT22;5625;50.122;19.864;2024-02-14T07:03:31;2.70;99.90
11142;DHT22;5625;50.122;19.864;2024-02-14T07:06:00;2.70;99.90
11142;DHT22;5625;50.122;19.864;2024-02-14T07:08:28;2.70;99.90
11142;DHT22;5625;50.122;19.864;2024-02-14T07:10:57;2.70;99.90
11142;DHT22;5625;50.122;19.864;2024-02-14T07:13:26;2.80;99.90
11142;DHT22;5625;50.122;19.864;2024-02-14T07:15:54;2.80;99.90
11142;DHT22;5625;50.122;19.864;2024-02-14T07:18:22;3.20;99.90
11142;DHT22;5625;50.122;19.864;2024-02-14T07:20:53;4.20;43.40
11142;DHT22;5625;50.122;19.864;2024-02-14T07:23:21;5.40;99.90
11142;DHT22;5625;50.122;19.864;2024-02-14T07:25:49;6.40;99.90
11142;DHT22;5625;50.122;19.864;2024-02-14T07:28:19;7.40;99.90
11142;DHT22;5625;50.122;19.864;2024-02-14T07:30:47;8.30;99.90
11142;DHT22;5625;50.122;19.864;2024-02-14T07:33:15;8.90;1.00
11142;DHT22;5625;50.122;19.864;2024-02-14T07:35:44;9.20;99.90
11142;DHT22;5625;50.122;19.864;2024-02-14T07:38:14;9.60;99.90
11142;DHT22;5625;50.122;19.864;2024-02-14T07:40:43;9.80;47.40
11142;DHT22;5625;50.122;19.864;2024-02-14T07:43:11;10.10;1.00
11142;DHT22;5625;50.122;19.864;2024-02-14T07:45:41;10.50;1.00
11142;DHT22;5625;50.122;19.864;2024-02-14T07:48:09;11.10;1.00
11142;DHT22;5625;50.122;19.864;2024-02-14T07:50:37;11.60;99.90
11142;DHT22;5625;50.122;19.864;2024-02-14T07:53:06;12.00;99.90
11142;DHT22;5625;50.122;19.864;2024-02-14T07:55:34;12.20;99.90
11142;DHT22;5625;50.122;19.864;2024-02-14T07:58:02;12.20;99.90
11142;DHT22;5625;50.122;19.864;2024-02-14T08:00:31;12.00;99.90
11142;DHT22;5625;50.122;19.864;2024-02-14T08:03:01;11.90;99.90
11142;DHT22;5625;50.122;19.864;2024-02-14T08:05:33;12.10;99.90
11142;DHT22;5625;50.122;19.864;2024-02-14T08:08:01;12.40;99.90
11142;DHT22;5625;50.122;19.864;2024-02-14T08:10:29;12.60;99.90
11142;DHT22;5625;50.122;19.864;2024-02-14T08:12:58;12.90;99.90
11142;DHT22;5625;50.122;19.864;2024-02-14T08:15:29;13.00;97.80
11142;DHT22;5625;50.122;19.864;2024-02-14T08:17:58;13.40;83.40
11142;DHT22;5625;50.122;19.864;2024-02-14T08:20:36;13.70;53.10
11142;DHT22;5625;50.122;19.864;2024-02-14T08:23:04;13.90;36.00
11142;DHT22;5625;50.122;19.864;2024-02-14T08:25:33;14.10;20.40
11142;DHT22;5625;50.122;19.864;2024-02-14T08:28:02;14.50;5.40
11142;DHT22;5625;50.122;19.864;2024-02-14T08:30:30;14.70;1.00
11142;DHT22;5625;50.122;19.864;2024-02-14T08:32:59;14.70;1.00
11142;DHT22;5625;50.122;19.864;2024-02-14T08:35:27;14.80;1.00
11142;DHT22;5625;50.122;19.864;2024-02-14T08:37:57;14.80;1.00
11142;DHT22;5625;50.122;19.864;2024-02-14T08:40:25;15.00;1.00
11142;DHT22;5625;50.122;19.864;2024-02-14T08:42:53;15.00;1.00
11142;DHT22;5625;50.122;19.864;2024-02-14T08:45:22;15.30;1.00
11142;DHT22;5625;50.122;19.864;2024-02-14T08:47:50;15.50;1.00
11142;DHT22;5625;50.122;19.864;2024-02-14T08:50:18;15.70;1.00
11142;DHT22;5625;50.122;19.864;2024-02-14T08:52:46;15.90;1.00
11142;DHT22;5625;50.122;19.864;2024-02-14T08:55:16;15.90;1.00
11142;DHT22;5625;50.122;19.864;2024-02-14T08:57:47;16.10;1.00
11142;DHT22;5625;50.122;19.864;2024-02-14T09:00:16;16.20;1.00
11142;DHT22;5625;50.122;19.864;2024-02-14T09:02:47;16.50;1.00
11142;DHT22;5625;50.122;19.864;2024-02-14T09:05:15;16.60;1.00
11142;DHT22;5625;50.122;19.864;2024-02-14T09:07:46;16.90;1.00
11142;DHT22;5625;50.122;19.864;2024-02-14T09:10:15;16.90;1.00
11142;DHT22;5625;50.122;19.864;2024-02-14T09:12:44;17.00;1.00
11142;DHT22;5625;50.122;19.864;2024-02-14T09:15:12;17.10;1.00
11142;DHT22;5625;50.122;19.864;2024-02-14T09:17:40;17.20;1.00
11142;DHT22;5625;50.122;19.864;2024-02-14T09:20:10;17.40;1.00
11142;DHT22;5625;50.122;19.864;2024-02-14T09:22:41;17.60;1.00
11142;DHT22;5625;50.122;19.864;2024-02-14T09:25:09;17.70;1.00
11142;DHT22;5625;50.122;19.864;2024-02-14T09:27:39;17.50;1.00
11142;DHT22;5625;50.122;19.864;2024-02-14T09:30:08;17.50;1.00
11142;DHT22;5625;50.122;19.864;2024-02-14T09:32:53;17.70;1.00
11142;DHT22;5625;50.122;19.864;2024-02-14T09:35:22;17.90;1.00
11142;DHT22;5625;50.122;19.864;2024-02-14T09:37:50;17.70;1.00
11142;DHT22;5625;50.122;19.864;2024-02-14T09:40:19;17.70;1.00
11142;DHT22;5625;50.122;19.864;2024-02-14T09:42:53;17.60;1.00
11142;DHT22;5625;50.122;19.864;2024-02-14T09:45:24;17.70;1.00
11142;DHT22;5625;50.122;19.864;2024-02-14T09:47:53;17.70;1.00
11142;DHT22;5625;50.122;19.864;2024-02-14T09:50:23;17.70;1.00
11142;DHT22;5625;50.122;19.864;2024-02-14T09:52:53;17.70;1.00
11142;DHT22;5625;50.122;19.864;2024-02-14T09:55:23;17.70;1.00
11142;DHT22;5625;50.122;19.864;2024-02-14T09:57:54;17.80;1.00
11142;DHT22;5625;50.122;19.864;2024-02-14T10:00:23;17.80;1.00
11142;DHT22;5625;50.122;19.864;2024-02-14T10:02:51;17.70;1.00
11142;DHT22;5625;50.122;19.864;2024-02-14T10:05:20;17.80;1.00
11142;DHT22;5625;50.122;19.864;2024-02-14T10:07:48;17.70;1.00
11142;DHT22;5625;50.122;19.864;2024-02-14T10:10:16;18.00;1.00
11142;DHT22;5625;50.122;19.864;2024-02-14T10:12:44;18.10;1.00
11142;DHT22;5625;50.122;19.864;2024-02-14T10:15:14;18.10;1.00
11142;DHT22;5625;50.122;19.864;2024-02-14T10:17:43;18.10;1.00
11142;DHT22;5625;50.122;19.864;2024-02-14T10:20:16;18.10;1.00
11142;DHT22;5625;50.122;19.864;2024-02-14T10:22:45;18.20;1.00
11142;DHT22;5625;50.122;19.864;2024-02-14T10:25:13;18.10;1.00
11142;DHT22;5625;50.122;19.864;2024-02-14T10:27:41;18.00;1.00
11142;DHT22;5625;50.122;19.864;2024-02-14T10:30:10;17.90;1.00
11142;DHT22;5625;50.122;19.864;2024-02-14T10:32:40;17.70;1.00
11142;DHT22;5625;50.122;19.864;2024-02-14T10:35:15;17.80;1.00
11142;DHT22;5625;50.122;19.864;2024-02-14T10:37:44;17.60;1.00
11142;DHT22;5625;50.122;19.864;2024-02-14T10:40:12;17.30;1.00
11142;DHT22;5625;50.122;19.864;2024-02-14T10:42:41;16.90;1.00
11142;DHT22;5625;50.122;19.864;2024-02-14T10:45:09;16.60;1.00
11142;DHT22;5625;50.122;19.864;2024-02-14T10:47:42;16.30;1.00
11142;DHT22;5625;50.122;19.864;2024-02-14T10:50:15;16.00;1.00
11142;DHT22;5625;50.122;19.864;2024-02-14T10:52:44;15.80;1.00
11142;DHT22;5625;50.122;19.864;2024-02-14T10:55:16;15.50;1.00
11142;DHT22;5625;50.122;19.864;2024-02-14T10:57:45;15.10;99.90
11142;DHT22;5625;50.122;19.864;2024-02-14T11:00:16;14.90;99.90
11142;DHT22;5625;50.122;19.864;2024-02-14T11:02:47;14.50;99.90
11142;DHT22;5625;50.122;19.864;2024-02-14T11:05:17;14.30;99.90
11142;DHT22;5625;50.122;19.864;2024-02-14T11:07:50;14.10;1.00
11142;DHT22;5625;50.122;19.864;2024-02-14T11:10:22;14.00;1.00
11142;DHT22;5625;50.122;19.864;2024-02-14T11:12:50;13.90;1.00
11142;DHT22;5625;50.122;19.864;2024-02-14T11:15:20;13.70;1.00
11142;DHT22;5625;50.122;19.864;2024-02-14T11:17:50;13.50;1.00
11142;DHT22;5625;50.122;19.864;2024-02-14T11:20:21;13.30;1.00
11142;DHT22;5625;50.122;19.864;2024-02-14T11:22:57;13.00;1.00
11142;DHT22;5625;50.122;19.864;2024-02-14T11:25:30;12.80;1.00
11142;DHT22;5625;50.122;19.864;2024-02-14T11:27:59;12.80;1.00
11142;DHT22;5625;50.122;19.864;2024-02-14T11:30:30;12.70;1.00
11142;DHT22;5625;50.122;19.864;2024-02-14T11:33:16;12.50;1.00
11142;DHT22;5625;50.122;19.864;2024-02-14T11:35:46;12.30;1.00
11142;DHT22;5625;50.122;19.864;2024-02-14T11:38:14;12.20;1.00
11142;DHT22;5625;50.122;19.864;2024-02-14T11:40:43;12.20;1.00
11142;DHT22;5625;50.122;19.864;2024-02-14T11:43:12;12.30;1.00
11142;DHT22;5625;50.122;19.864;2024-02-14T11:45:42;12.10;1.00
11142;DHT22;5625;50.122;19.864;2024-02-14T11:48:11;12.10;1.00
11142;DHT22;5625;50.122;19.864;2024-02-14T11:50:42;12.00;1.00
11142;DHT22;5625;50.122;19.864;2024-02-14T11:53:12;12.00;1.00
11142;DHT22;5625;50.122;19.864;2024-02-14T11:55:41;11.80;1.00
11142;DHT22;5625;50.122;19.864;2024-02-14T11:58:10;11.70;1.00
11142;DHT22;5625;50.122;19.864;2024-02-14T12:00:40;11.70;1.00
11142;DHT22;5625;50.122;19.864;2024-02-14T12:03:11;11.60;1.00
11142;DHT22;5625;50.122;19.864;2024-02-14T12:05:41;11.50;1.00
11142;DHT22;5625;50.122;19.864;2024-02-14T12:08:11;11.50;1.00
11142;DHT22;5625;50.122;19.864;2024-02-14T12:10:42;11.30;1.00
11142;DHT22;5625;50.122;19.864;2024-02-14T12:13:14;11.30;1.00
11142;DHT22;5625;50.122;19.864;2024-02-14T12:15:46;11.30;1.00
11142;DHT22;5625;50.122;19.864;2024-02-14T12:18:16;11.20;1.00
11142;DHT22;5625;50.122;19.864;2024-02-14T12:20:46;11.20;1.00
11142;DHT22;5625;50.122;19.864;2024-02-14T12:23:20;11.20;1.00
11142;DHT22;5625;50.122;19.864;2024-02-14T12:25:49;11.10;1.00
11142;DHT22;5625;50.122;19.864;2024-02-14T12:28:18;11.00;1.00
11142;DHT22;5625;50.122;19.864;2024-02-14T12:30:48;11.00;1.00
11142;DHT22;5625;50.122;19.864;2024-02-14T12:33:17;10.90;1.00
11142;DHT22;5625;50.122;19.864;2024-02-14T12:35:47;10.80;1.00
11142;DHT22;5625;50.122;19.864;2024-02-14T12:38:18;10.80;1.00
11142;DHT22;5625;50.122;19.864;2024-02-14T12:40:46;10.70;1.00
11142;DHT22;5625;50.122;19.864;2024-02-14T12:43:15;10.70;1.00
11142;DHT22;5625;50.122;19.864;2024-02-14T12:45:44;10.60;1.00
11142;DHT22;5625;50.122;19.864;2024-02-14T12:48:13;10.60;1.00
11142;DHT22;5625;50.122;19.864;2024-02-14T12:50:42;10.50;1.00
11142;DHT22;5625;50.122;19.864;2024-02-14T12:53:19;10.50;1.00
11142;DHT22;5625;50.122;19.864;2024-02-14T12:55:47;10.50;1.00
11142;DHT22;5625;50.122;19.864;2024-02-14T12:58:16;10.30;1.00
11142;DHT22;5625;50.122;19.864;2024-02-14T13:00:44;10.20;1.00
11142;DHT22;5625;50.122;19.864;2024-02-14T13:03:13;10.20;1.00
11142;DHT22;5625;50.122;19.864;2024-02-14T13:05:44;10.20;1.00
11142;DHT22;5625;50.122;19.864;2024-02-14T13:08:14;10.30;1.00
11142;DHT22;5625;50.122;19.864;2024-02-14T13:10:45;10.20;1.00
11142;DHT22;5625;50.122;19.864;2024-02-14T13:13:13;10.30;1.00
11142;DHT22;5625;50.122;19.864;2024-02-14T13:15:42;10.20;1.00
11142;DHT22;5625;50.122;19.864;2024-02-14T13:18:12;10.20;1.00
11142;DHT22;5625;50.122;19.864;2024-02-14T13:20:41;10.20;1.00
11142;DHT22;5625;50.122;19.864;2024-02-14T13:23:11;10.20;1.00
11142;DHT22;5625;50.122;19.864;2024-02-14T13:25:41;10.10;1.00
11142;DHT22;5625;50.122;19.864;2024-02-14T13:28:11;10.10;1.00
11142;DHT22;5625;50.122;19.864;2024-02-14T13:30:39;10.10;1.00
11142;DHT22;5625;50.122;19.864;2024-02-14T13:33:08;10.10;1.00
11142;DHT22;5625;50.122;19.864;2024-02-14T13:35:38;10.00;1.00
11142;DHT22;5625;50.122;19.864;2024-02-14T13:38:07;10.00;1.00
11142;DHT22;5625;50.122;19.864;2024-02-14T13:40:36;10.00;1.00
11142;DHT22;5625;50.122;19.864;2024-02-14T13:43:04;10.00;1.00
11142;DHT22;5625;50.122;19.864;2024-02-14T13:45:41;10.00;1.00
11142;DHT22;5625;50.122;19.864;2024-02-14T13:48:13;9.90;1.00
11142;DHT22;5625;50.122;19.864;2024-02-14T13:50:42;9.90;1.00
11142;DHT22;5625;50.122;19.864;2024-02-14T13:53:10;9.90;1.00
11142;DHT22;5625;50.122;19.864;2024-02-14T13:55:39;9.90;1.00
11142;DHT22;5625;50.122;19.864;2024-02-14T13:58:07;9.90;1.00
11142;DHT22;5625;50.122;19.864;2024-02-14T14:00:43;9.90;1.00
11142;DHT22;5625;50.122;19.864;2024-02-14T14:03:11;9.80;1.00
11142;DHT22;5625;50.122;19.864;2024-02-14T14:05:39;9.80;1.00
11142;DHT22;5625;50.122;19.864;2024-02-14T14:08:08;9.80;1.00
11142;DHT22;5625;50.122;19.864;2024-02-14T14:10:36;9.80;1.00
11142;DHT22;5625;50.122;19.864;2024-02-14T14:13:04;9.80;1.00
11142;DHT22;5625;50.122;19.864;2024-02-14T14:15:33;9.80;1.00
11142;DHT22;5625;50.122;19.864;2024-02-14T14:18:03;9.70;1.00
11142;DHT22;5625;50.122;19.864;2024-02-14T14:20:31;9.70;1.00
11142;DHT22;5625;50.122;19.864;2024-02-14T14:23:00;9.70;1.00
11142;DHT22;5625;50.122;19.864;2024-02-14T14:25:30;9.70;1.00
11142;DHT22;5625;50.122;19.864;2024-02-14T14:28:00;9.60;1.00
11142;DHT22;5625;50.122;19.864;2024-02-14T14:30:33;9.60;1.00
11142;DHT22;5625;50.122;19.864;2024-02-14T14:33:03;9.60;1.00
11142;DHT22;5625;50.122;19.864;2024-02-14T14:35:31;9.50;1.00
11142;DHT22;5625;50.122;19.864;2024-02-14T14:38:00;9.50;1.00
11142;DHT22;5625;50.122;19.864;2024-02-14T14:40:29;9.40;1.00
11142;DHT22;5625;50.122;19.864;2024-02-14T14:42:58;9.40;1.00
11142;DHT22;5625;50.122;19.864;2024-02-14T14:45:26;9.40;1.00
11142;DHT22;5625;50.122;19.864;2024-02-14T14:47:55;9.40;1.00
11142;DHT22;5625;50.122;19.864;2024-02-14T14:50:25;9.40;1.00
11142;DHT22;5625;50.122;19.864;2024-02-14T14:52:53;9.40;6.40
11142;DHT22;5625;50.122;19.864;2024-02-14T14:55:22;9.30;8.70
11142;DHT22;5625;50.122;19.864;2024-02-14T14:57:53;9.30;3.30
11142;DHT22;5625;50.122;19.864;2024-02-14T15:00:23;9.30;1.70
11142;DHT22;5625;50.122;19.864;2024-02-14T15:02:52;9.30;9.00
11142;DHT22;5625;50.122;19.864;2024-02-14T15:05:21;9.30;8.20
11142;DHT22;5625;50.122;19.864;2024-02-14T15:07:51;9.30;13.30
11142;DHT22;5625;50.122;19.864;2024-02-14T15:10:20;9.30;24.10
11142;DHT22;5625;50.122;19.864;2024-02-14T15:12:48;9.30;25.30
11142;DHT22;5625;50.122;19.864;2024-02-14T15:15:16;9.30;31.60
11142;DHT22;5625;50.122;19.864;2024-02-14T15:17:46;9.20;36.10
11142;DHT22;5625;50.122;19.864;2024-02-14T15:20:15;9.20;42.10
11142;DHT22;5625;50.122;19.864;2024-02-14T15:22:43;9.20;37.80
11142;DHT22;5625;50.122;19.864;2024-02-14T15:25:13;9.20;47.20
11142;DHT22;5625;50.122;19.864;2024-02-14T15:27:41;9.20;42.50
11142;DHT22;5625;50.122;19.864;2024-02-14T15:30:22;9.20;62.70
11142;DHT22;5625;50.122;19.864;2024-02-14T15:33:07;9.10;66.60
11142;DHT22;5625;50.122;19.864;2024-02-14T15:35:52;9.10;73.10
11142;DHT22;5625;50.122;19.864;2024-02-14T15:38:22;9.10;92.00
11142;DHT22;5625;50.122;19.864;2024-02-14T15:40:53;9.00;79.10
11142;DHT22;5625;50.122;19.864;2024-02-14T15:43:24;9.00;58.40
11142;DHT22;5625;50.122;19.864;2024-02-14T15:45:53;9.00;65.50
11142;DHT22;5625;50.122;19.864;2024-02-14T15:48:21;8.90;75.60
11142;DHT22;5625;50.122;19.864;2024-02-14T15:50:51;8.90;73.30
11142;DHT22;5625;50.122;19.864;2024-02-14T15:53:20;8.90;76.70
11142;DHT22;5625;50.122;19.864;2024-02-14T15:55:55;8.80;77.00
11142;DHT22;5625;50.122;19.864;2024-02-14T15:58:23;8.80;84.40
11142;DHT22;5625;50.122;19.864;2024-02-14T16:00:53;8.80;83.20